首页
METAR-TAF:

METAR-TAF

机场 :

比亚里茨, 法国

纬度: 43-28N, 经度: 001-32W, 海拔: 75米

当前天气观测

该预报发布于16分钟前的00:30 UTC
风速17节,风向西转西北,有时为31节阵风
温度 10°C
湿度 93%
气压 1003 hPa
能見度: 5000
小雨, 轻雾

METAR: LFBZ 140030Z AUTO 30017G31KT 5000 -RA BR FEW008/// BKN014/// BKN020/// ///CB 10/09 Q1003 TEMPO 24020G45KT BKN014

时间: 01:46 (00:46 UTC)

预报

该预报发布于8分钟前的00:38 UTC
预报有效从14日的 00点(UTC)到 14日的 24点(UTC)
风速10节,风向西
能见度10公里或以上
多云层高于3000英尺
短暂存在
从 14日的 00点(UTC)到 14日的 07点(UTC)
风速15节,风向西转西南,有时为25节阵风
能見度: 4000
多云层高于1400英尺
少量云层高于2000英尺, 积雨云.
小雨
几率 30% :
短暂存在
从 14日的 00点(UTC)到 14日的 07点(UTC)
风速20节,风向西转西南,有时为45节阵风
几率 30% :
短暂存在
从 14日的 07点(UTC)到 14日的 12点(UTC)
风速15节,风向多变,有时为30节阵风
能見度: 4000
多云层高于3000英尺, 塔状积云.
阵雨
成为
从 14日的 13点(UTC)到 14日的 15点(UTC)
风速8节,风向
短暂存在
从 14日的 17点(UTC)到 14日的 24点(UTC)
风速15节,风向多变,有时为25节阵风
能見度: 3000
多云层高于1000英尺
多云层高于2000英尺, 塔状积云.
阵雨

TAF: LFBZ 140038Z 1400/1424 26010KT 9999 BKN030 TEMPO 1400/1407 24015G25KT 4000 -RA BKN014 FEW020CB PROB30 TEMPO 1400/1407 24020G45KT PROB30 TEMPO 1407/1412 VRB15G30KT 4000 SHRA BKN030TCU BECMG 1413/1415 10008KT TEMPO 1417/1424 VRB15G25KT 3000 SHRA BKN010 BKN020TCU

超过4000个机场的气象观测和天气预报(METAR&TAF报告)。

可查询的气象台以黄色和红色小点在地图上表示。

将鼠标移到小点上方,可查看气象台名称。

然后点击查看天气观测和预报。

如需切换地图:点击带黑十字的绿色按钮放大地图;点击带横线的绿色按钮缩小地图;或者点击绿色箭头查看邻近地区的地图。


METAR-TAF: